sensor_id;sensor_type;location;lat;lon;timestamp;temperature;humidity
33863;DHT22;20158;51.436;-2.742;2023-03-31T00:00:58;15.20;71.30
33863;DHT22;20158;51.436;-2.742;2023-03-31T00:03:26;15.10;71.10
33863;DHT22;20158;51.436;-2.742;2023-03-31T00:05:56;15.10;71.10
33863;DHT22;20158;51.436;-2.742;2023-03-31T00:08:23;15.10;71.10
33863;DHT22;20158;51.436;-2.742;2023-03-31T00:10:50;15.10;71.10
33863;DHT22;20158;51.436;-2.742;2023-03-31T00:13:16;15.00;71.00
33863;DHT22;20158;51.436;-2.742;2023-03-31T00:15:43;15.00;71.00
33863;DHT22;20158;51.436;-2.742;2023-03-31T00:18:09;15.00;71.10
33863;DHT22;20158;51.436;-2.742;2023-03-31T00:20:35;15.00;71.10
33863;DHT22;20158;51.436;-2.742;2023-03-31T00:23:04;15.00;71.10
33863;DHT22;20158;51.436;-2.742;2023-03-31T00:25:38;15.00;71.20
33863;DHT22;20158;51.436;-2.742;2023-03-31T00:28:05;15.00;71.20
33863;DHT22;20158;51.436;-2.742;2023-03-31T00:30:31;14.90;71.00
33863;DHT22;20158;51.436;-2.742;2023-03-31T00:32:59;14.90;71.10
33863;DHT22;20158;51.436;-2.742;2023-03-31T00:35:26;14.90;71.10
33863;DHT22;20158;51.436;-2.742;2023-03-31T00:37:52;14.90;71.10
33863;DHT22;20158;51.436;-2.742;2023-03-31T00:40:19;14.80;71.00
33863;DHT22;20158;51.436;-2.742;2023-03-31T00:42:45;14.90;71.20
33863;DHT22;20158;51.436;-2.742;2023-03-31T00:48:25;14.80;71.10
33863;DHT22;20158;51.436;-2.742;2023-03-31T00:50:40;14.80;71.10
33863;DHT22;20158;51.436;-2.742;2023-03-31T00:53:12;14.80;71.10
33863;DHT22;20158;51.436;-2.742;2023-03-31T00:55:41;14.80;71.20
33863;DHT22;20158;51.436;-2.742;2023-03-31T00:58:08;14.80;71.20
33863;DHT22;20158;51.436;-2.742;2023-03-31T01:00:40;14.70;70.90
33863;DHT22;20158;51.436;-2.742;2023-03-31T01:03:07;14.70;71.00
33863;DHT22;20158;51.436;-2.742;2023-03-31T01:08:05;14.70;71.10
33863;DHT22;20158;51.436;-2.742;2023-03-31T01:10:38;14.70;71.10
33863;DHT22;20158;51.436;-2.742;2023-03-31T01:13:08;14.70;71.20
33863;DHT22;20158;51.436;-2.742;2023-03-31T01:15:36;14.70;71.30
33863;DHT22;20158;51.436;-2.742;2023-03-31T01:18:05;14.70;71.30
33863;DHT22;20158;51.436;-2.742;2023-03-31T01:41:23;14.60;71.20
33863;DHT22;20158;51.436;-2.742;2023-03-31T01:47:05;14.60;71.20
33863;DHT22;20158;51.436;-2.742;2023-03-31T01:52:25;14.60;71.30
33863;DHT22;20158;51.436;-2.742;2023-03-31T01:55:24;14.60;71.30
33863;DHT22;20158;51.436;-2.742;2023-03-31T01:58:25;14.60;71.30
33863;DHT22;20158;51.436;-2.742;2023-03-31T02:01:21;14.60;71.40
33863;DHT22;20158;51.436;-2.742;2023-03-31T02:04:14;14.50;71.20
33863;DHT22;20158;51.436;-2.742;2023-03-31T02:06:45;14.50;71.20
33863;DHT22;20158;51.436;-2.742;2023-03-31T02:09:16;14.50;71.20
33863;DHT22;20158;51.436;-2.742;2023-03-31T02:11:45;14.50;71.20
33863;DHT22;20158;51.436;-2.742;2023-03-31T02:14:15;14.50;71.10
33863;DHT22;20158;51.436;-2.742;2023-03-31T02:16:44;14.50;71.20
33863;DHT22;20158;51.436;-2.742;2023-03-31T02:19:14;14.40;71.10
33863;DHT22;20158;51.436;-2.742;2023-03-31T02:21:47;14.50;71.30
33863;DHT22;20158;51.436;-2.742;2023-03-31T02:24:16;14.40;71.20
33863;DHT22;20158;51.436;-2.742;2023-03-31T02:26:52;14.40;71.20
33863;DHT22;20158;51.436;-2.742;2023-03-31T02:29:21;14.40;71.30
33863;DHT22;20158;51.436;-2.742;2023-03-31T02:32:12;14.40;71.30
33863;DHT22;20158;51.436;-2.742;2023-03-31T02:34:39;14.40;71.30
33863;DHT22;20158;51.436;-2.742;2023-03-31T02:37:06;14.40;71.30
33863;DHT22;20158;51.436;-2.742;2023-03-31T02:39:35;14.40;71.30
33863;DHT22;20158;51.436;-2.742;2023-03-31T02:42:02;14.40;71.40
33863;DHT22;20158;51.436;-2.742;2023-03-31T02:44:35;14.30;71.20
33863;DHT22;20158;51.436;-2.742;2023-03-31T02:47:03;14.30;71.30
33863;DHT22;20158;51.436;-2.742;2023-03-31T02:49:32;14.30;71.30
33863;DHT22;20158;51.436;-2.742;2023-03-31T03:00:44;14.30;71.30
33863;DHT22;20158;51.436;-2.742;2023-03-31T03:03:41;14.30;71.30
33863;DHT22;20158;51.436;-2.742;2023-03-31T03:06:14;14.30;71.30
33863;DHT22;20158;51.436;-2.742;2023-03-31T03:09:06;14.30;71.30
33863;DHT22;20158;51.436;-2.742;2023-03-31T03:17:12;14.20;71.20
33863;DHT22;20158;51.436;-2.742;2023-03-31T03:19:42;14.20;71.20
33863;DHT22;20158;51.436;-2.742;2023-03-31T03:22:09;14.20;71.20
33863;DHT22;20158;51.436;-2.742;2023-03-31T03:24:35;14.20;71.20
33863;DHT22;20158;51.436;-2.742;2023-03-31T03:27:01;14.10;71.10
33863;DHT22;20158;51.436;-2.742;2023-03-31T03:29:27;14.10;71.10
33863;DHT22;20158;51.436;-2.742;2023-03-31T03:31:53;14.10;71.20
33863;DHT22;20158;51.436;-2.742;2023-03-31T03:34:19;14.10;71.20
33863;DHT22;20158;51.436;-2.742;2023-03-31T03:36:45;14.10;71.20
33863;DHT22;20158;51.436;-2.742;2023-03-31T03:39:12;14.10;71.20
33863;DHT22;20158;51.436;-2.742;2023-03-31T03:41:38;14.10;71.30
33863;DHT22;20158;51.436;-2.742;2023-03-31T03:44:05;14.10;71.30
33863;DHT22;20158;51.436;-2.742;2023-03-31T03:46:31;14.10;71.30
33863;DHT22;20158;51.436;-2.742;2023-03-31T03:48:57;14.10;71.30
33863;DHT22;20158;51.436;-2.742;2023-03-31T03:51:22;14.10;71.40
33863;DHT22;20158;51.436;-2.742;2023-03-31T03:53:49;14.10;71.40
33863;DHT22;20158;51.436;-2.742;2023-03-31T03:56:15;14.10;71.40
33863;DHT22;20158;51.436;-2.742;2023-03-31T03:58:41;14.10;71.40
33863;DHT22;20158;51.436;-2.742;2023-03-31T04:01:07;14.10;71.40
33863;DHT22;20158;51.436;-2.742;2023-03-31T04:03:33;14.10;71.40
33863;DHT22;20158;51.436;-2.742;2023-03-31T04:05:59;14.10;71.40
33863;DHT22;20158;51.436;-2.742;2023-03-31T04:08:25;14.10;71.40
33863;DHT22;20158;51.436;-2.742;2023-03-31T04:10:52;14.00;71.20
33863;DHT22;20158;51.436;-2.742;2023-03-31T04:13:18;14.00;71.20
33863;DHT22;20158;51.436;-2.742;2023-03-31T04:15:45;14.00;71.30
33863;DHT22;20158;51.436;-2.742;2023-03-31T04:18:11;14.00;71.30
33863;DHT22;20158;51.436;-2.742;2023-03-31T04:20:49;14.00;71.40
33863;DHT22;20158;51.436;-2.742;2023-03-31T04:23:22;14.00;71.40
33863;DHT22;20158;51.436;-2.742;2023-03-31T04:25:51;14.00;71.40
33863;DHT22;20158;51.436;-2.742;2023-03-31T04:28:17;13.90;71.20
33863;DHT22;20158;51.436;-2.742;2023-03-31T04:30:45;13.90;71.30
33863;DHT22;20158;51.436;-2.742;2023-03-31T04:33:11;14.00;71.50
33863;DHT22;20158;51.436;-2.742;2023-03-31T04:35:40;14.00;71.50
33863;DHT22;20158;51.436;-2.742;2023-03-31T04:38:19;13.90;71.30
33863;DHT22;20158;51.436;-2.742;2023-03-31T04:40:47;13.90;71.30
33863;DHT22;20158;51.436;-2.742;2023-03-31T04:43:15;13.90;71.40
33863;DHT22;20158;51.436;-2.742;2023-03-31T04:45:41;13.90;71.40
33863;DHT22;20158;51.436;-2.742;2023-03-31T04:48:07;13.90;71.40
33863;DHT22;20158;51.436;-2.742;2023-03-31T04:50:34;13.90;71.50
33863;DHT22;20158;51.436;-2.742;2023-03-31T04:53:01;13.90;71.40
33863;DHT22;20158;51.436;-2.742;2023-03-31T04:55:29;13.90;71.40
33863;DHT22;20158;51.436;-2.742;2023-03-31T04:57:55;13.90;71.40
33863;DHT22;20158;51.436;-2.742;2023-03-31T05:00:23;13.90;71.50
33863;DHT22;20158;51.436;-2.742;2023-03-31T05:02:49;13.90;71.50
33863;DHT22;20158;51.436;-2.742;2023-03-31T05:05:16;13.90;71.50
33863;DHT22;20158;51.436;-2.742;2023-03-31T05:07:42;13.90;71.50
33863;DHT22;20158;51.436;-2.742;2023-03-31T05:10:08;13.90;71.50
33863;DHT22;20158;51.436;-2.742;2023-03-31T05:12:36;13.90;71.50
33863;DHT22;20158;51.436;-2.742;2023-03-31T05:15:03;13.90;71.50
33863;DHT22;20158;51.436;-2.742;2023-03-31T05:17:34;13.90;71.50
33863;DHT22;20158;51.436;-2.742;2023-03-31T05:20:01;13.90;71.60
33863;DHT22;20158;51.436;-2.742;2023-03-31T05:22:33;13.90;71.60
33863;DHT22;20158;51.436;-2.742;2023-03-31T05:25:02;13.90;71.60
33863;DHT22;20158;51.436;-2.742;2023-03-31T05:27:28;13.80;71.40
33863;DHT22;20158;51.436;-2.742;2023-03-31T05:29:54;13.80;71.50
33863;DHT22;20158;51.436;-2.742;2023-03-31T05:32:20;13.80;71.50
33863;DHT22;20158;51.436;-2.742;2023-03-31T05:34:46;13.80;71.50
33863;DHT22;20158;51.436;-2.742;2023-03-31T05:37:13;13.80;71.50
33863;DHT22;20158;51.436;-2.742;2023-03-31T05:39:39;13.80;71.50
33863;DHT22;20158;51.436;-2.742;2023-03-31T05:42:08;13.80;71.60
33863;DHT22;20158;51.436;-2.742;2023-03-31T05:44:34;13.70;71.40
33863;DHT22;20158;51.436;-2.742;2023-03-31T05:47:01;13.70;71.40
33863;DHT22;20158;51.436;-2.742;2023-03-31T05:49:26;13.80;71.60
33863;DHT22;20158;51.436;-2.742;2023-03-31T05:51:52;13.70;71.40
33863;DHT22;20158;51.436;-2.742;2023-03-31T05:54:18;13.70;71.50
33863;DHT22;20158;51.436;-2.742;2023-03-31T05:56:44;13.70;71.50
33863;DHT22;20158;51.436;-2.742;2023-03-31T05:59:10;13.70;71.60
33863;DHT22;20158;51.436;-2.742;2023-03-31T06:01:39;13.80;72.10
33863;DHT22;20158;51.436;-2.742;2023-03-31T06:04:06;13.80;72.20
33863;DHT22;20158;51.436;-2.742;2023-03-31T06:06:33;13.80;72.20
33863;DHT22;20158;51.436;-2.742;2023-03-31T06:08:59;13.80;72.20
33863;DHT22;20158;51.436;-2.742;2023-03-31T06:11:25;13.80;72.20
33863;DHT22;20158;51.436;-2.742;2023-03-31T06:13:51;13.80;72.30
33863;DHT22;20158;51.436;-2.742;2023-03-31T06:16:18;13.80;72.80
33863;DHT22;20158;51.436;-2.742;2023-03-31T06:18:45;13.80;73.20
33863;DHT22;20158;51.436;-2.742;2023-03-31T06:21:14;14.00;74.20
33863;DHT22;20158;51.436;-2.742;2023-03-31T06:23:43;14.10;74.80
33863;DHT22;20158;51.436;-2.742;2023-03-31T06:26:14;14.20;75.00
33863;DHT22;20158;51.436;-2.742;2023-03-31T06:28:40;14.30;75.10
33863;DHT22;20158;51.436;-2.742;2023-03-31T06:31:12;14.40;75.00
33863;DHT22;20158;51.436;-2.742;2023-03-31T06:34:00;14.30;74.70
33863;DHT22;20158;51.436;-2.742;2023-03-31T06:36:26;14.30;74.60
33863;DHT22;20158;51.436;-2.742;2023-03-31T06:38:52;14.30;74.60
33863;DHT22;20158;51.436;-2.742;2023-03-31T06:41:18;14.30;74.50
33863;DHT22;20158;51.436;-2.742;2023-03-31T06:43:47;14.20;74.20
33863;DHT22;20158;51.436;-2.742;2023-03-31T06:46:14;14.20;74.20
33863;DHT22;20158;51.436;-2.742;2023-03-31T06:48:41;14.20;74.10
33863;DHT22;20158;51.436;-2.742;2023-03-31T06:51:08;14.20;74.10
33863;DHT22;20158;51.436;-2.742;2023-03-31T06:53:36;14.20;74.00
33863;DHT22;20158;51.436;-2.742;2023-03-31T06:56:03;14.10;73.80
33863;DHT22;20158;51.436;-2.742;2023-03-31T06:58:32;14.10;73.80
33863;DHT22;20158;51.436;-2.742;2023-03-31T07:01:00;14.10;73.70
33863;DHT22;20158;51.436;-2.742;2023-03-31T07:03:27;14.10;73.70
33863;DHT22;20158;51.436;-2.742;2023-03-31T07:05:54;14.10;73.60
33863;DHT22;20158;51.436;-2.742;2023-03-31T07:08:21;14.10;73.70
33863;DHT22;20158;51.436;-2.742;2023-03-31T07:10:48;14.10;73.80
33863;DHT22;20158;51.436;-2.742;2023-03-31T07:13:15;14.10;73.90
33863;DHT22;20158;51.436;-2.742;2023-03-31T07:15:41;14.10;74.00
33863;DHT22;20158;51.436;-2.742;2023-03-31T07:18:07;14.10;74.00
33863;DHT22;20158;51.436;-2.742;2023-03-31T07:20:34;14.20;74.20
33863;DHT22;20158;51.436;-2.742;2023-03-31T07:23:04;14.20;74.20
33863;DHT22;20158;51.436;-2.742;2023-03-31T07:25:34;14.20;74.20
33863;DHT22;20158;51.436;-2.742;2023-03-31T07:28:02;14.30;74.30
33863;DHT22;20158;51.436;-2.742;2023-03-31T07:30:29;14.30;74.20
33863;DHT22;20158;51.436;-2.742;2023-03-31T07:32:55;14.40;74.40
33863;DHT22;20158;51.436;-2.742;2023-03-31T07:35:21;14.40;74.40
33863;DHT22;20158;51.436;-2.742;2023-03-31T07:37:49;14.40;74.40
33863;DHT22;20158;51.436;-2.742;2023-03-31T07:40:19;14.40;74.50
33863;DHT22;20158;51.436;-2.742;2023-03-31T07:42:48;14.40;74.50
33863;DHT22;20158;51.436;-2.742;2023-03-31T07:45:20;14.40;74.50
33863;DHT22;20158;51.436;-2.742;2023-03-31T07:47:47;14.40;74.50
33863;DHT22;20158;51.436;-2.742;2023-03-31T07:50:15;14.40;74.50
33863;DHT22;20158;51.436;-2.742;2023-03-31T07:52:41;14.50;74.70
33863;DHT22;20158;51.436;-2.742;2023-03-31T07:55:08;14.50;74.60
33863;DHT22;20158;51.436;-2.742;2023-03-31T07:57:35;14.50;74.70
33863;DHT22;20158;51.436;-2.742;2023-03-31T08:00:05;14.50;74.60
33863;DHT22;20158;51.436;-2.742;2023-03-31T08:02:40;14.50;74.60
33863;DHT22;20158;51.436;-2.742;2023-03-31T08:05:12;14.60;74.70
33863;DHT22;20158;51.436;-2.742;2023-03-31T08:07:40;14.60;74.70
33863;DHT22;20158;51.436;-2.742;2023-03-31T08:10:09;14.50;74.50
33863;DHT22;20158;51.436;-2.742;2023-03-31T08:12:35;14.50;74.50
33863;DHT22;20158;51.436;-2.742;2023-03-31T08:15:02;14.50;74.50
33863;DHT22;20158;51.436;-2.742;2023-03-31T08:17:29;14.60;74.80
33863;DHT22;20158;51.436;-2.742;2023-03-31T08:19:56;14.60;74.80
33863;DHT22;20158;51.436;-2.742;2023-03-31T08:22:22;14.60;74.80
33863;DHT22;20158;51.436;-2.742;2023-03-31T08:24:48;14.60;74.80
33863;DHT22;20158;51.436;-2.742;2023-03-31T08:27:14;14.70;74.90
33863;DHT22;20158;51.436;-2.742;2023-03-31T08:29:41;14.70;75.40
33863;DHT22;20158;51.436;-2.742;2023-03-31T08:32:07;14.80;75.10
33863;DHT22;20158;51.436;-2.742;2023-03-31T08:34:34;14.90;75.10
33863;DHT22;20158;51.436;-2.742;2023-03-31T08:37:01;15.00;75.10
33863;DHT22;20158;51.436;-2.742;2023-03-31T08:39:27;15.10;75.00
33863;DHT22;20158;51.436;-2.742;2023-03-31T08:41:57;15.30;75.00
33863;DHT22;20158;51.436;-2.742;2023-03-31T08:44:37;15.40;74.80
33863;DHT22;20158;51.436;-2.742;2023-03-31T08:47:10;15.60;74.80
33863;DHT22;20158;51.436;-2.742;2023-03-31T08:49:56;15.70;74.60
33863;DHT22;20158;51.436;-2.742;2023-03-31T08:52:26;15.90;74.70
33863;DHT22;20158;51.436;-2.742;2023-03-31T08:55:17;16.00;74.50
33863;DHT22;20158;51.436;-2.742;2023-03-31T08:58:08;16.10;74.60
33863;DHT22;20158;51.436;-2.742;2023-03-31T09:00:45;16.20;74.10
33863;DHT22;20158;51.436;-2.742;2023-03-31T09:06:13;16.50;74.10
33863;DHT22;20158;51.436;-2.742;2023-03-31T09:08:41;16.60;73.90
33863;DHT22;20158;51.436;-2.742;2023-03-31T09:16:29;16.90;73.60
33863;DHT22;20158;51.436;-2.742;2023-03-31T09:18:59;17.00;73.40
33863;DHT22;20158;51.436;-2.742;2023-03-31T09:21:32;17.20;73.50
33863;DHT22;20158;51.436;-2.742;2023-03-31T09:26:54;17.30;73.10
33863;DHT22;20158;51.436;-2.742;2023-03-31T09:32:14;17.50;72.90
33863;DHT22;20158;51.436;-2.742;2023-03-31T09:34:42;17.50;72.60
33863;DHT22;20158;51.436;-2.742;2023-03-31T09:37:11;17.60;72.70
33863;DHT22;20158;51.436;-2.742;2023-03-31T09:39:39;17.70;72.70
33863;DHT22;20158;51.436;-2.742;2023-03-31T09:42:07;17.80;72.60
33863;DHT22;20158;51.436;-2.742;2023-03-31T09:44:40;17.90;72.40
33863;DHT22;20158;51.436;-2.742;2023-03-31T09:49:52;18.10;72.20
33863;DHT22;20158;51.436;-2.742;2023-03-31T09:52:32;18.10;72.00
33863;DHT22;20158;51.436;-2.742;2023-03-31T09:55:05;18.20;71.90
33863;DHT22;20158;51.436;-2.742;2023-03-31T09:57:38;18.20;71.80
33863;DHT22;20158;51.436;-2.742;2023-03-31T10:00:14;18.30;71.80
33863;DHT22;20158;51.436;-2.742;2023-03-31T10:03:00;18.30;71.50
33863;DHT22;20158;51.436;-2.742;2023-03-31T10:11:09;18.30;71.10
33863;DHT22;20158;51.436;-2.742;2023-03-31T10:13:40;18.30;71.10
33863;DHT22;20158;51.436;-2.742;2023-03-31T10:16:12;18.30;71.10
33863;DHT22;20158;51.436;-2.742;2023-03-31T10:18:44;18.30;70.90
33863;DHT22;20158;51.436;-2.742;2023-03-31T10:21:25;18.40;70.90
33863;DHT22;20158;51.436;-2.742;2023-03-31T10:23:54;18.40;70.70
33863;DHT22;20158;51.436;-2.742;2023-03-31T10:26:26;18.50;70.70
33863;DHT22;20158;51.436;-2.742;2023-03-31T10:28:54;18.50;70.50
33863;DHT22;20158;51.436;-2.742;2023-03-31T10:31:34;18.70;70.60
33863;DHT22;20158;51.436;-2.742;2023-03-31T10:34:11;18.80;70.20
33863;DHT22;20158;51.436;-2.742;2023-03-31T10:36:45;19.00;70.10
33863;DHT22;20158;51.436;-2.742;2023-03-31T10:39:16;19.20;70.10
33863;DHT22;20158;51.436;-2.742;2023-03-31T10:41:52;19.30;69.80
33863;DHT22;20158;51.436;-2.742;2023-03-31T10:44:31;19.60;69.80
33863;DHT22;20158;51.436;-2.742;2023-03-31T10:47:15;19.70;69.30
33863;DHT22;20158;51.436;-2.742;2023-03-31T10:49:43;19.80;69.20
33863;DHT22;20158;51.436;-2.742;2023-03-31T10:52:21;19.70;69.10
33863;DHT22;20158;51.436;-2.742;2023-03-31T10:55:11;19.80;69.00
33863;DHT22;20158;51.436;-2.742;2023-03-31T10:57:52;19.80;68.80
33863;DHT22;20158;51.436;-2.742;2023-03-31T11:00:31;19.80;68.80
33863;DHT22;20158;51.436;-2.742;2023-03-31T11:05:51;19.80;68.80
33863;DHT22;20158;51.436;-2.742;2023-03-31T11:14:39;19.50;68.70
33863;DHT22;20158;51.436;-2.742;2023-03-31T11:22:55;19.60;68.40
33863;DHT22;20158;51.436;-2.742;2023-03-31T11:25:29;19.70;68.30
33863;DHT22;20158;51.436;-2.742;2023-03-31T11:31:05;20.00;68.20
33863;DHT22;20158;51.436;-2.742;2023-03-31T11:33:42;20.20;68.20
33863;DHT22;20158;51.436;-2.742;2023-03-31T11:39:11;20.70;67.80
33863;DHT22;20158;51.436;-2.742;2023-03-31T11:41:49;20.80;67.90
33863;DHT22;20158;51.436;-2.742;2023-03-31T11:44:18;20.90;67.10
33863;DHT22;20158;51.436;-2.742;2023-03-31T11:47:06;20.90;67.00
33863;DHT22;20158;51.436;-2.742;2023-03-31T11:49:37;20.70;66.60
33863;DHT22;20158;51.436;-2.742;2023-03-31T11:52:16;20.50;66.70
33863;DHT22;20158;51.436;-2.742;2023-03-31T11:55:32;20.30;66.70
33863;DHT22;20158;51.436;-2.742;2023-03-31T11:58:02;20.20;66.80
33863;DHT22;20158;51.436;-2.742;2023-03-31T12:00:47;20.10;67.00
33863;DHT22;20158;51.436;-2.742;2023-03-31T12:03:41;20.00;66.80
33863;DHT22;20158;51.436;-2.742;2023-03-31T12:06:14;20.00;66.60
33863;DHT22;20158;51.436;-2.742;2023-03-31T12:14:26;20.10;66.70
33863;DHT22;20158;51.436;-2.742;2023-03-31T12:16:59;20.20;66.60
33863;DHT22;20158;51.436;-2.742;2023-03-31T12:19:27;20.40;66.50
33863;DHT22;20158;51.436;-2.742;2023-03-31T12:22:03;20.40;66.20
33863;DHT22;20158;51.436;-2.742;2023-03-31T12:24:31;20.50;66.20
33863;DHT22;20158;51.436;-2.742;2023-03-31T12:29:43;20.50;66.10
33863;DHT22;20158;51.436;-2.742;2023-03-31T12:32:21;20.50;66.10
33863;DHT22;20158;51.436;-2.742;2023-03-31T12:35:00;20.70;66.10
33863;DHT22;20158;51.436;-2.742;2023-03-31T12:43:13;21.30;65.50
33863;DHT22;20158;51.436;-2.742;2023-03-31T12:48:42;21.50;65.30
33863;DHT22;20158;51.436;-2.742;2023-03-31T12:59:37;21.70;65.10
33863;DHT22;20158;51.436;-2.742;2023-03-31T13:02:17;21.70;64.80
33863;DHT22;20158;51.436;-2.742;2023-03-31T13:04:44;21.80;64.80
33863;DHT22;20158;51.436;-2.742;2023-03-31T13:07:34;21.80;64.70
33863;DHT22;20158;51.436;-2.742;2023-03-31T13:13:05;22.00;64.20
33863;DHT22;20158;51.436;-2.742;2023-03-31T13:15:39;22.10;64.10
33863;DHT22;20158;51.436;-2.742;2023-03-31T13:18:06;22.10;64.00
33863;DHT22;20158;51.436;-2.742;2023-03-31T13:25:39;22.00;63.40
33863;DHT22;20158;51.436;-2.742;2023-03-31T13:33:14;21.70;63.40
33863;DHT22;20158;51.436;-2.742;2023-03-31T13:35:45;21.60;63.40
33863;DHT22;20158;51.436;-2.742;2023-03-31T13:38:41;21.50;63.30
33863;DHT22;20158;51.436;-2.742;2023-03-31T13:41:33;21.50;63.10
33863;DHT22;20158;51.436;-2.742;2023-03-31T13:44:16;21.40;63.00
33863;DHT22;20158;51.436;-2.742;2023-03-31T13:46:51;21.30;63.10
33863;DHT22;20158;51.436;-2.742;2023-03-31T13:50:07;21.20;63.10
33863;DHT22;20158;51.436;-2.742;2023-03-31T14:04:25;20.60;63.40
33863;DHT22;20158;51.436;-2.742;2023-03-31T14:07:01;20.50;63.40
33863;DHT22;20158;51.436;-2.742;2023-03-31T14:09:43;20.40;63.50
33863;DHT22;20158;51.436;-2.742;2023-03-31T14:12:32;20.30;63.60
33863;DHT22;20158;51.436;-2.742;2023-03-31T14:14:59;20.20;63.70
33863;DHT22;20158;51.436;-2.742;2023-03-31T14:17:36;20.10;63.80
33863;DHT22;20158;51.436;-2.742;2023-03-31T14:31:16;19.70;64.10
33863;DHT22;20158;51.436;-2.742;2023-03-31T14:39:31;19.60;64.40
33863;DHT22;20158;51.436;-2.742;2023-03-31T14:42:09;19.60;64.40
33863;DHT22;20158;51.436;-2.742;2023-03-31T14:44:36;19.70;64.40
33863;DHT22;20158;51.436;-2.742;2023-03-31T14:47:04;19.80;64.40
33863;DHT22;20158;51.436;-2.742;2023-03-31T14:49:38;19.90;64.30
33863;DHT22;20158;51.436;-2.742;2023-03-31T14:52:18;20.10;64.20
33863;DHT22;20158;51.436;-2.742;2023-03-31T14:54:46;20.20;63.90
33863;DHT22;20158;51.436;-2.742;2023-03-31T14:57:17;20.40;63.90
33863;DHT22;20158;51.436;-2.742;2023-03-31T14:59:44;20.50;63.80
33863;DHT22;20158;51.436;-2.742;2023-03-31T15:02:19;20.50;63.70
33863;DHT22;20158;51.436;-2.742;2023-03-31T15:04:49;20.60;63.60
33863;DHT22;20158;51.436;-2.742;2023-03-31T15:07:17;20.60;63.50
33863;DHT22;20158;51.436;-2.742;2023-03-31T15:09:48;20.60;63.40
33863;DHT22;20158;51.436;-2.742;2023-03-31T15:12:16;20.60;63.30
33863;DHT22;20158;51.436;-2.742;2023-03-31T15:14:56;20.50;63.20
33863;DHT22;20158;51.436;-2.742;2023-03-31T15:17:28;20.40;63.10
33863;DHT22;20158;51.436;-2.742;2023-03-31T15:19:59;20.40;63.20
33863;DHT22;20158;51.436;-2.742;2023-03-31T15:22:29;20.40;63.30
33863;DHT22;20158;51.436;-2.742;2023-03-31T15:24:57;20.30;63.20
33863;DHT22;20158;51.436;-2.742;2023-03-31T15:27:36;20.30;63.30
33863;DHT22;20158;51.436;-2.742;2023-03-31T15:30:08;20.20;63.30
33863;DHT22;20158;51.436;-2.742;2023-03-31T15:32:39;20.10;63.20
33863;DHT22;20158;51.436;-2.742;2023-03-31T15:35:29;20.00;63.10
33863;DHT22;20158;51.436;-2.742;2023-03-31T15:37:57;19.90;63.10
33863;DHT22;20158;51.436;-2.742;2023-03-31T15:40:34;19.90;63.90
33863;DHT22;20158;51.436;-2.742;2023-03-31T15:43:15;19.70;63.20
33863;DHT22;20158;51.436;-2.742;2023-03-31T15:45:53;19.70;63.40
33863;DHT22;20158;51.436;-2.742;2023-03-31T15:48:24;19.60;63.40
33863;DHT22;20158;51.436;-2.742;2023-03-31T15:50:59;19.50;63.40
33863;DHT22;20158;51.436;-2.742;2023-03-31T15:53:30;19.50;64.10
33863;DHT22;20158;51.436;-2.742;2023-03-31T15:55:58;19.40;63.50
33863;DHT22;20158;51.436;-2.742;2023-03-31T15:58:45;19.40;63.50
33863;DHT22;20158;51.436;-2.742;2023-03-31T16:01:11;19.40;63.60
33863;DHT22;20158;51.436;-2.742;2023-03-31T16:03:40;19.30;63.50
33863;DHT22;20158;51.436;-2.742;2023-03-31T16:06:08;19.30;63.50
33863;DHT22;20158;51.436;-2.742;2023-03-31T16:08:42;19.30;63.50
33863;DHT22;20158;51.436;-2.742;2023-03-31T16:11:22;19.30;63.50
33863;DHT22;20158;51.436;-2.742;2023-03-31T16:13:55;19.30;63.60
33863;DHT22;20158;51.436;-2.742;2023-03-31T16:16:23;19.30;63.90
33863;DHT22;20158;51.436;-2.742;2023-03-31T16:19:03;19.30;63.50
33863;DHT22;20158;51.436;-2.742;2023-03-31T16:21:38;19.20;63.10
33863;DHT22;20158;51.436;-2.742;2023-03-31T16:24:05;19.10;63.10
33863;DHT22;20158;51.436;-2.742;2023-03-31T16:26:32;19.00;63.60
33863;DHT22;20158;51.436;-2.742;2023-03-31T16:28:59;18.90;64.10
33863;DHT22;20158;51.436;-2.742;2023-03-31T16:31:33;18.90;64.50
33863;DHT22;20158;51.436;-2.742;2023-03-31T16:34:00;18.90;65.00
33863;DHT22;20158;51.436;-2.742;2023-03-31T16:36:26;18.90;65.10
33863;DHT22;20158;51.436;-2.742;2023-03-31T16:38:53;18.90;65.10
33863;DHT22;20158;51.436;-2.742;2023-03-31T16:41:21;18.80;65.00
33863;DHT22;20158;51.436;-2.742;2023-03-31T16:43:48;18.80;65.00
33863;DHT22;20158;51.436;-2.742;2023-03-31T16:46:17;18.70;64.90
33863;DHT22;20158;51.436;-2.742;2023-03-31T16:48:43;18.60;64.90
33863;DHT22;20158;51.436;-2.742;2023-03-31T16:51:10;18.60;65.00
33863;DHT22;20158;51.436;-2.742;2023-03-31T16:53:35;18.60;64.80
33863;DHT22;20158;51.436;-2.742;2023-03-31T16:56:03;18.40;64.40
33863;DHT22;20158;51.436;-2.742;2023-03-31T16:58:32;18.30;64.10
33863;DHT22;20158;51.436;-2.742;2023-03-31T17:00:59;18.30;64.20
33863;DHT22;20158;51.436;-2.742;2023-03-31T17:03:27;18.10;63.90
33863;DHT22;20158;51.436;-2.742;2023-03-31T17:05:54;18.10;64.00
33863;DHT22;20158;51.436;-2.742;2023-03-31T17:08:23;18.00;64.00
33863;DHT22;20158;51.436;-2.742;2023-03-31T17:13:21;17.80;63.90
33863;DHT22;20158;51.436;-2.742;2023-03-31T17:15:47;17.70;63.80
33863;DHT22;20158;51.436;-2.742;2023-03-31T17:18:13;17.60;63.80
33863;DHT22;20158;51.436;-2.742;2023-03-31T17:20:39;17.60;64.10
33863;DHT22;20158;51.436;-2.742;2023-03-31T17:23:06;17.50;64.30
33863;DHT22;20158;51.436;-2.742;2023-03-31T17:25:33;17.50;64.80
33863;DHT22;20158;51.436;-2.742;2023-03-31T17:28:03;17.50;65.00
33863;DHT22;20158;51.436;-2.742;2023-03-31T17:30:31;17.40;65.10
33863;DHT22;20158;51.436;-2.742;2023-03-31T17:32:59;17.50;65.50
33863;DHT22;20158;51.436;-2.742;2023-03-31T17:35:25;17.50;65.60
33863;DHT22;20158;51.436;-2.742;2023-03-31T17:37:57;17.50;65.70
33863;DHT22;20158;51.436;-2.742;2023-03-31T17:40:23;17.50;65.90
33863;DHT22;20158;51.436;-2.742;2023-03-31T17:42:50;17.50;65.90
33863;DHT22;20158;51.436;-2.742;2023-03-31T17:45:17;17.50;66.00
33863;DHT22;20158;51.436;-2.742;2023-03-31T17:47:43;17.50;66.10
33863;DHT22;20158;51.436;-2.742;2023-03-31T17:50:10;17.50;66.10
33863;DHT22;20158;51.436;-2.742;2023-03-31T17:52:37;17.50;66.20
33863;DHT22;20158;51.436;-2.742;2023-03-31T17:55:04;17.50;66.10
33863;DHT22;20158;51.436;-2.742;2023-03-31T17:57:30;17.40;66.00
33863;DHT22;20158;51.436;-2.742;2023-03-31T17:59:56;17.30;65.90
33863;DHT22;20158;51.436;-2.742;2023-03-31T18:02:23;17.30;66.00
33863;DHT22;20158;51.436;-2.742;2023-03-31T18:04:49;17.20;66.60
33863;DHT22;20158;51.436;-2.742;2023-03-31T18:07:15;17.00;65.80
33863;DHT22;20158;51.436;-2.742;2023-03-31T18:09:43;17.00;65.90
33863;DHT22;20158;51.436;-2.742;2023-03-31T18:12:10;16.90;65.90
33863;DHT22;20158;51.436;-2.742;2023-03-31T18:14:36;16.80;65.80
33863;DHT22;20158;51.436;-2.742;2023-03-31T18:17:02;16.70;65.80